METAR Data
IDs: Format: Raw Decoded Include TAF

Data at: 0015 UTC 26 Oct 2021

KMDD 252355Z AUTO 19006KT 10SM CLR 29/04 A2992 RMK AO2 T02950035 10331 20294 403310120
KMDD 252335Z AUTO 20007KT 10SM CLR 31/03 A2992 RMK AO2 T03080033
KMDD 252315Z AUTO 21009KT 10SM CLR 31/03 A2992 RMK AO2 T03150032
KMDD 252255Z AUTO 22011KT 10SM CLR 32/03 A2993 RMK AO2 T03190033
KMDD 252235Z AUTO 20010KT 10SM CLR 32/03 A2993 RMK AO2 T03220034
KMDD 252215Z AUTO 20009KT 10SM CLR 32/04 A2993 RMK AO2 T03240035
KMDD 252155Z AUTO 19012KT 10SM CLR 32/04 A2993 RMK AO2 T03250035
KMDD 252135Z AUTO 19010KT 10SM CLR 33/04 A2993 RMK AO2 T03260037
KMDD 252115Z AUTO 19009KT 10SM CLR 32/03 A2994 RMK AO2 T03250034
KMDD 252055Z AUTO 19010KT 10SM CLR 32/03 A2994 RMK AO2 T03240034
KMDD 252035Z AUTO 20009KT 10SM CLR 32/03 A2995 RMK AO2 T03210034
KMDD 252015Z AUTO 21009G16KT 10SM CLR 32/03 A2996 RMK AO2 T03190033
KMDD 251955Z AUTO 20011KT 10SM CLR 32/03 A2996 RMK AO2 T03250035
KMDD 251935Z AUTO 24009G15KT 10SM CLR 32/03 A2997 RMK AO2 T03230032
KMDD 251915Z AUTO 20012G16KT 10SM CLR 32/03 A2998 RMK AO2 T03170030
KMDD 251855Z AUTO 19010G16KT 10SM CLR 32/03 A2999 RMK AO2 T03170029
KMDD 251835Z AUTO 22010KT 10SM CLR 32/03 A3000 RMK AO2 T03150030
KMDD 251815Z AUTO 19010KT 10SM CLR 31/03 A3001 RMK AO2 T03100028
KMDD 251755Z AUTO 19008KT 10SM CLR 30/03 A3002 RMK AO2 T03050026 10307 20120
KMDD 251735Z AUTO 18008KT 10SM CLR 29/02 A3002 RMK AO2 T02930025
KMDD 251715Z AUTO 19005KT 10SM CLR 29/03 A3002 RMK AO2 T02860028
KMDD 251655Z AUTO 24005KT 10SM CLR 28/03 A3003 RMK AO2 T02780027
KMDD 251635Z AUTO 20005KT 10SM CLR 27/03 A3003 RMK AO2 T02710027
KMDD 251615Z AUTO 23003KT 10SM CLR 26/03 A3003 RMK AO2 T02640027
KMDD 251555Z AUTO 00000KT 10SM CLR 25/04 A3003 RMK AO2 T02540036
KMDD 251535Z AUTO 00000KT 10SM CLR 24/04 A3003 RMK AO2 T02400039
KMDD 251515Z AUTO 24005KT 10SM CLR 22/04 A3003 RMK AO2 T02210037
KMDD 251455Z AUTO 23003KT 10SM CLR 20/04 A3003 RMK AO2 T02050035
KMDD 251435Z AUTO 28004KT 10SM CLR 19/02 A3004 RMK AO2 T01850025
KMDD 251415Z AUTO 30003KT 10SM CLR 17/02 A3003 RMK AO2 T01710025
KMDD 251355Z AUTO 28004KT 10SM CLR 15/02 A3002 RMK AO2 T01530024
KMDD 251335Z AUTO 29003KT 10SM CLR 13/03 A3002 RMK AO2 T01260025
KMDD 251315Z AUTO 29003KT 10SM CLR 12/02 A3001 RMK AO2 T01210023
KMDD 251255Z AUTO 30004KT 10SM CLR 13/02 A3001 RMK AO2 T01330024
KMDD 251235Z AUTO 00000KT 10SM CLR 14/02 A3001 RMK AO2 T01350020
KMDD 251215Z AUTO 00000KT 10SM CLR 14/02 A3001 RMK AO2 T01360018
KMDD 251155Z AUTO 27005KT 10SM CLR 14/02 A3000 RMK AO2 T01410017 10169 20122
KMDD 251135Z AUTO 27004KT 10SM CLR 14/02 A3001 RMK AO2 T01420016
KMDD 251115Z AUTO 25005KT 10SM CLR 13/02 A3000 RMK AO2 T01340016
KMDD 251055Z AUTO 25005KT 10SM CLR 13/02 A3000 RMK AO2 T01310020
KMDD 251035Z AUTO 30003KT 10SM CLR 14/03 A3000 RMK AO2 T01350032
KMDD 251015Z AUTO 28004KT 10SM CLR 12/04 A3000 RMK AO2 T01240036
KMDD 250955Z AUTO 26003KT 10SM CLR 14/04 A2999 RMK AO2 T01380041
KMDD 250935Z AUTO 27003KT 10SM CLR 15/03 A2999 RMK AO2 T01530035
KMDD 250915Z AUTO 26005KT 10SM CLR 14/04 A2998 RMK AO2 T01420037
KMDD 250855Z AUTO 22003KT 10SM CLR 15/04 A2998 RMK AO2 T01460043
KMDD 250835Z AUTO 00000KT 10SM CLR 14/05 A2999 RMK AO2 T01450051
KMDD 250815Z AUTO 13003KT 10SM CLR 15/05 A2999 RMK AO2 T01460051
KMDD 250755Z AUTO 14003KT 10SM CLR 14/03 A2999 RMK AO2 T01440035
KMDD 250735Z AUTO 00000KT 10SM CLR 16/04 A2999 RMK AO2 T01580039
KMDD 250715Z AUTO 00000KT 10SM CLR 15/04 A2999 RMK AO2 T01530035
KMDD 250655Z AUTO 00000KT 10SM CLR 16/04 A2999 RMK AO2 T01590036
KMDD 250635Z AUTO 00000KT 10SM CLR 16/04 A2999 RMK AO2 T01600039
KMDD 250615Z AUTO 00000KT 7SM HZ CLR 16/04 A2999 RMK AO2 T01630040
KMDD 250555Z AUTO 00000KT 10SM CLR 16/04 A2999 RMK AO2 T01620035 10280 20152
KMDD 250535Z AUTO 21004KT 10SM CLR 16/04 A2999 RMK AO2 T01630038
KMDD 250515Z AUTO 34003KT 10SM CLR 17/03 A2998 RMK AO2 T01720025
KMDD 250455Z AUTO 00000KT 10SM CLR 17/03 A2998 RMK AO2 T01670030
KMDD 250435Z AUTO 34004KT 10SM CLR 18/03 A2998 RMK AO2 T01780031
KMDD 250415Z AUTO 03004KT 10SM CLR 18/03 A2998 RMK AO2 T01780034
KMDD 250355Z AUTO 28003KT 10SM CLR 19/04 A2997 RMK AO2 T01910037
KMDD 250335Z AUTO 00000KT 10SM CLR 20/03 A2996 RMK AO2 T01960033
KMDD 250315Z AUTO 28003KT 10SM CLR 21/03 A2995 RMK AO2 T02060034
KMDD 250255Z AUTO 34003KT 10SM CLR 21/03 A2995 RMK AO2 T02050028
KMDD 250235Z AUTO 26004KT 10SM CLR 21/03 A2994 RMK AO2 T02140032
KMDD 250215Z AUTO 23004KT 10SM CLR 23/03 A2994 RMK AO2 T02280027
KMDD 250155Z AUTO 23003KT 10SM CLR 23/03 A2993 RMK AO2 T02320028
KMDD 250135Z AUTO 24003KT 10SM CLR 23/03 A2992 RMK AO2 T02320027
KMDD 250115Z AUTO 21004KT 10SM CLR 23/02 A2992 RMK AO2 T02330025
KMDD 250055Z AUTO 23005KT 10SM CLR 26/02 A2991 RMK AO2 T02560021
KMDD 250035Z AUTO 21003KT 10SM CLR 25/03 A2990 RMK AO2 T02540028
KMDD 250015Z AUTO 22003KT 10SM CLR 27/02 A2989 RMK AO2 T02710024
KMDD 242355Z AUTO 21003KT 10SM CLR 28/02 A2989 RMK AO2 T02820019 10311 20279 403110173
KMDD 242335Z AUTO 23004KT 10SM CLR 29/01 A2988 RMK AO2 T02910008
KMDD 242315Z AUTO 22005KT 10SM CLR 30/01 A2988 RMK AO2 T02980006
KMDD 242255Z AUTO 24007KT 10SM CLR 30/00 A2988 RMK AO2 T03020003
KMDD 242235Z AUTO 27008KT 10SM CLR 30/00 A2988 RMK AO2 T03040002
KMDD 242215Z AUTO 26005KT 10SM CLR 31/00 A2988 RMK AO2 T03070001
KMDD 242155Z AUTO 20004KT 10SM CLR 30/00 A2989 RMK AO2 T03040001
KMDD 242135Z AUTO 21007KT 10SM CLR 30/00 A2989 RMK AO2 T03030003
KMDD 242115Z AUTO 25004KT 10SM CLR 30/00 A2988 RMK AO2 T03020002
KMDD 242055Z AUTO 00000KT 10SM CLR 30/01 A2988 RMK AO2 T02980007
KMDD 242035Z AUTO 23004KT 10SM CLR 30/01 A2988 RMK AO2 T03040009
KMDD 242015Z AUTO 28005KT 10SM CLR 30/01 A2988 RMK AO2 T03010011
KMDD 241955Z AUTO 20005KT 10SM CLR 30/01 A2988 RMK AO2 T02970013
KMDD 241935Z AUTO 21005KT 10SM CLR 30/01 A2989 RMK AO2 T02950010
KMDD 241915Z AUTO 33003KT 10SM CLR 29/01 A2990 RMK AO2 T02940011
KMDD 241855Z AUTO 16004KT 10SM CLR 29/01 A2990 RMK AO2 T02920015
KMDD 241835Z AUTO 28003KT 10SM CLR 29/01 A2991 RMK AO2 T02880013
KMDD 241815Z AUTO 34004KT 10SM CLR 28/02 A2992 RMK AO2 T02830016
KMDD 241755Z AUTO 33003KT 10SM CLR 28/02 A2993 RMK AO2 T02810020 10287 20173
KMDD 241735Z AUTO 29005KT 10SM CLR 28/02 A2993 RMK AO2 T02760018
KMDD 241715Z AUTO 31009KT 10SM CLR 28/02 A2994 RMK AO2 T02780023
KMDD 241655Z AUTO 29008KT 10SM CLR 27/04 A2994 RMK AO2 T02730041
KMDD 241635Z AUTO 28008KT 10SM CLR 26/05 A2994 RMK AO2 T02630051
KMDD 241615Z AUTO 27008KT 10SM CLR 26/06 A2994 RMK AO2 T02600064
KMDD 241555Z AUTO 26008KT 10SM CLR 24/08 A2994 RMK AO2 T02440081
KMDD 241535Z AUTO 23008KT 10SM CLR 23/11 A2994 RMK AO2 T02330113
KMDD 241515Z AUTO 24007KT 10SM CLR 22/13 A2994 RMK AO2 T02200128
KMDD 241455Z AUTO 22007KT 10SM CLR 21/13 A2993 RMK AO2 T02100134
KMDD 241435Z AUTO 21008KT 10SM CLR 20/14 A2992 RMK AO2 T02010141
KMDD 241415Z AUTO 20006KT 10SM CLR 19/15 A2991 RMK AO2 T01910147
KMDD 241355Z AUTO 21006KT 10SM CLR 18/15 A2990 RMK AO2 T01830147
KMDD 241335Z AUTO 22007KT 10SM CLR 18/15 A2989 RMK AO2 T01750145
KMDD 241315Z AUTO 22005KT 10SM CLR 17/14 A2988 RMK AO2 T01740144
KMDD 241255Z AUTO 20008KT 10SM CLR 18/14 A2988 RMK AO2 T01770144
KMDD 241235Z AUTO 22008KT 10SM CLR 18/15 A2988 RMK AO2 T01790146